createdAt,value
2022-08-18T00:00:21.027Z,60.00
2022-08-18T00:00:54.429Z,60.12
2022-08-18T00:01:26.420Z,60.11
2022-08-18T00:02:14.024Z,60.20
2022-08-18T00:03:01.164Z,60.15
2022-08-18T00:03:55.968Z,59.91
2022-08-18T00:04:35.624Z,59.67
2022-08-18T00:05:09.848Z,59.72
2022-08-18T00:05:45.143Z,59.73
2022-08-18T00:06:18.170Z,60.04
2022-08-18T00:06:50.131Z,60.05
2022-08-18T00:07:25.963Z,59.92
2022-08-18T00:07:58.871Z,60.13
2022-08-18T00:08:30.778Z,60.10
2022-08-18T00:09:06.810Z,59.87
2022-08-18T00:09:40.414Z,59.84
2022-08-18T00:10:18.203Z,59.84
2022-08-18T00:10:50.994Z,59.86
2022-08-18T00:11:24.396Z,59.91
2022-08-18T00:11:56.369Z,59.77
2022-08-18T00:12:39.609Z,59.66
2022-08-18T00:13:11.518Z,60.13
2022-08-18T00:13:43.437Z,60.57
2022-08-18T00:14:22.181Z,60.58
2022-08-18T00:14:55.117Z,60.58
2022-08-18T00:15:27.013Z,60.72
2022-08-18T00:15:59.173Z,60.74
2022-08-18T00:16:31.426Z,60.50
2022-08-18T00:17:03.845Z,60.31
2022-08-18T00:17:36.868Z,60.33
2022-08-18T00:18:08.783Z,60.15
2022-08-18T00:18:40.695Z,60.26
2022-08-18T00:19:12.775Z,60.19
2022-08-18T00:19:48.024Z,60.44
2022-08-18T00:20:24.088Z,60.37
2022-08-18T00:20:55.975Z,60.45
2022-08-18T00:21:27.937Z,60.75
2022-08-18T00:22:00.184Z,60.75
2022-08-18T00:22:32.148Z,60.34
2022-08-18T00:23:04.018Z,60.43
2022-08-18T00:23:35.981Z,60.43
2022-08-18T00:24:08.890Z,60.54
2022-08-18T00:24:47.064Z,60.61
2022-08-18T00:25:21.071Z,60.67
2022-08-18T00:25:52.972Z,60.70
2022-08-18T00:26:25.056Z,60.51
2022-08-18T00:26:57.980Z,60.60
2022-08-18T00:27:31.527Z,60.63
2022-08-18T00:28:05.199Z,60.66
2022-08-18T00:28:37.164Z,60.85
2022-08-18T00:29:09.256Z,60.87
2022-08-18T00:29:41.613Z,60.34
2022-08-18T00:30:18.277Z,60.59
2022-08-18T00:30:50.166Z,60.67
2022-08-18T00:31:26.035Z,60.64
2022-08-18T00:31:58.992Z,61.36
2022-08-18T00:32:40.574Z,61.71
2022-08-18T00:33:12.459Z,61.33
2022-08-18T00:33:44.363Z,61.40
2022-08-18T00:34:16.261Z,61.07
2022-08-18T00:34:48.216Z,61.26
2022-08-18T00:35:20.935Z,61.20
2022-08-18T00:35:52.988Z,61.05
2022-08-18T00:36:25.059Z,61.34
2022-08-18T00:36:56.986Z,61.76
2022-08-18T00:37:29.780Z,61.62
2022-08-18T00:38:04.656Z,61.61
2022-08-18T00:38:36.584Z,61.70
2022-08-18T00:39:08.510Z,61.71
2022-08-18T00:39:40.629Z,61.77
2022-08-18T00:40:22.061Z,61.65
2022-08-18T00:40:56.169Z,61.77
2022-08-18T00:41:28.694Z,62.00
2022-08-18T00:42:27.353Z,62.03
2022-08-18T00:43:05.646Z,61.72
2022-08-18T00:43:43.756Z,61.85
2022-08-18T00:44:16.529Z,61.87
2022-08-18T00:44:49.299Z,61.70
2022-08-18T00:45:30.693Z,61.53
2022-08-18T00:46:02.750Z,61.54
2022-08-18T00:46:37.741Z,61.87
2022-08-18T00:47:09.659Z,61.89
2022-08-18T00:47:43.300Z,62.06
2022-08-18T00:48:15.890Z,62.09
2022-08-18T00:48:49.447Z,62.26
2022-08-18T00:49:21.417Z,62.42
2022-08-18T00:49:53.615Z,63.04
2022-08-18T00:50:39.256Z,62.81
2022-08-18T00:51:17.548Z,62.76
2022-08-18T00:51:51.243Z,62.73
2022-08-18T00:52:24.917Z,62.73
2022-08-18T00:53:02.636Z,63.38
2022-08-18T00:53:45.742Z,63.34
2022-08-18T00:54:24.071Z,63.44
2022-08-18T00:54:56.814Z,63.33
2022-08-18T00:55:32.442Z,63.09
2022-08-18T00:56:09.248Z,63.29
2022-08-18T00:56:53.264Z,63.03
2022-08-18T00:57:25.788Z,63.36
2022-08-18T00:58:07.052Z,63.35
2022-08-18T00:58:50.934Z,63.27
2022-08-18T00:59:22.805Z,63.13
2022-08-18T01:00:05.885Z,63.13
2022-08-18T01:00:38.718Z,63.04
2022-08-18T01:01:13.103Z,63.08
2022-08-18T01:01:48.023Z,63.23
2022-08-18T01:02:27.919Z,63.07
2022-08-18T01:03:04.519Z,63.20
2022-08-18T01:03:40.075Z,63.28
2022-08-18T01:04:24.254Z,63.28
2022-08-18T01:05:12.544Z,63.29
2022-08-18T01:06:02.272Z,63.61
2022-08-18T01:06:43.709Z,63.45
2022-08-18T01:07:25.510Z,63.36
2022-08-18T01:07:57.741Z,63.44
2022-08-18T01:08:29.924Z,63.66
2022-08-18T01:09:03.236Z,63.76
2022-08-18T01:09:35.657Z,63.68
2022-08-18T01:10:08.210Z,63.68
2022-08-18T01:10:40.651Z,63.79
2022-08-18T01:11:12.678Z,63.98
2022-08-18T01:11:44.689Z,63.85
2022-08-18T01:12:46.106Z,63.83
2022-08-18T01:13:08.870Z,63.70
2022-08-18T01:13:43.361Z,63.77
2022-08-18T01:14:18.416Z,63.58
2022-08-18T01:14:50.773Z,63.46
2022-08-18T01:15:29.536Z,63.53
2022-08-18T01:16:22.418Z,63.55
2022-08-18T01:17:12.896Z,63.69
2022-08-18T01:18:03.792Z,64.08
2022-08-18T01:18:54.343Z,63.99
2022-08-18T01:19:46.290Z,63.97
2022-08-18T01:20:55.713Z,63.87
2022-08-18T01:21:49.497Z,63.90
2022-08-18T01:22:37.292Z,64.09
2022-08-18T01:23:19.396Z,63.99
2022-08-18T01:23:53.713Z,64.07
2022-08-18T01:24:52.796Z,63.96
2022-08-18T01:25:43.900Z,63.99
2022-08-18T01:26:18.680Z,64.24
2022-08-18T01:26:50.684Z,64.35
2022-08-18T01:27:23.485Z,64.32
2022-08-18T01:27:59.750Z,64.36
2022-08-18T01:28:40.587Z,64.03
2022-08-18T01:29:18.655Z,64.25
2022-08-18T01:29:51.812Z,64.21
2022-08-18T01:30:25.776Z,64.21
2022-08-18T01:30:59.903Z,64.32
2022-08-18T01:31:35.036Z,64.13
2022-08-18T01:32:06.922Z,64.27
2022-08-18T01:32:40.224Z,64.30
2022-08-18T01:33:12.431Z,64.37
2022-08-18T01:33:44.897Z,64.48
2022-08-18T01:34:16.960Z,64.40
2022-08-18T01:34:51.080Z,64.54
2022-08-18T01:35:25.727Z,64.47
2022-08-18T01:36:00.017Z,64.64
2022-08-18T01:36:34.874Z,64.37
2022-08-18T01:37:06.800Z,64.21
2022-08-18T01:37:41.291Z,64.30
2022-08-18T01:38:13.373Z,64.29
2022-08-18T01:38:48.715Z,64.14
2022-08-18T01:40:59.743Z,64.25
2022-08-18T01:41:23.889Z,64.37
2022-08-18T01:41:26.645Z,64.54
2022-08-18T01:42:04.576Z,64.50
2022-08-18T01:42:37.536Z,64.12
2022-08-18T01:43:09.417Z,64.14
2022-08-18T01:43:41.312Z,64.30
2022-08-18T01:44:13.253Z,64.30
2022-08-18T01:44:47.907Z,64.60
2022-08-18T01:45:20.764Z,64.72
2022-08-18T01:45:53.014Z,64.45
2022-08-18T01:46:26.450Z,64.40
2022-08-18T01:46:58.361Z,64.33
2022-08-18T01:47:57.314Z,64.46
2022-08-18T01:48:24.314Z,64.43
2022-08-18T01:49:01.351Z,64.34
2022-08-18T01:49:33.344Z,64.52
2022-08-18T01:50:06.677Z,64.67
2022-08-18T01:50:41.318Z,64.73
2022-08-18T01:51:13.665Z,64.63
2022-08-18T01:51:46.455Z,64.58
2022-08-18T01:52:21.202Z,64.59
2022-08-18T01:52:53.789Z,64.58
2022-08-18T01:53:26.685Z,64.32
2022-08-18T01:53:59.757Z,64.25
2022-08-18T01:54:33.353Z,64.28
2022-08-18T01:55:07.890Z,64.83
2022-08-18T01:55:45.257Z,64.80
2022-08-18T01:56:17.838Z,65.25
2022-08-18T01:56:50.278Z,64.94
2022-08-18T01:57:22.511Z,65.07
2022-08-18T01:57:55.516Z,64.97
2022-08-18T01:58:31.857Z,64.31
2022-08-18T01:59:04.499Z,64.34
2022-08-18T01:59:36.433Z,64.67
2022-08-18T02:00:10.567Z,64.76
2022-08-18T02:00:44.882Z,64.93
2022-08-18T02:01:17.184Z,64.95
2022-08-18T02:01:52.953Z,65.23
2022-08-18T02:02:31.618Z,65.24
2022-08-18T02:03:11.683Z,65.42
2022-08-18T02:03:49.462Z,65.41
2022-08-18T02:04:36.029Z,65.61
2022-08-18T02:05:27.480Z,65.70
2022-08-18T02:06:09.692Z,65.92
2022-08-18T02:06:42.401Z,66.10
2022-08-18T02:07:20.150Z,66.46
2022-08-18T02:07:52.501Z,65.93
2022-08-18T02:08:28.172Z,65.58
2022-08-18T02:09:01.171Z,65.47
2022-08-18T02:09:33.712Z,65.68
2022-08-18T02:10:11.781Z,65.78
2022-08-18T02:10:44.414Z,66.00
2022-08-18T02:11:16.695Z,65.92
2022-08-18T02:11:48.671Z,66.01
2022-08-18T02:12:23.978Z,65.99
2022-08-18T02:12:55.960Z,65.85
2022-08-18T02:13:27.944Z,65.93
2022-08-18T02:13:59.913Z,65.66
2022-08-18T02:14:31.842Z,65.97
2022-08-18T02:15:05.991Z,66.42
2022-08-18T02:15:37.960Z,66.93
2022-08-18T02:16:13.831Z,67.54
2022-08-18T02:16:46.285Z,67.64
2022-08-18T02:17:18.252Z,67.25
2022-08-18T02:17:50.344Z,67.37
2022-08-18T02:18:46.888Z,67.30
2022-08-18T02:19:20.481Z,67.32
2022-08-18T02:19:52.419Z,67.35
2022-08-18T02:20:24.980Z,67.44
2022-08-18T02:20:59.601Z,67.29
2022-08-18T02:21:31.577Z,67.44
2022-08-18T02:22:05.287Z,67.01
2022-08-18T02:22:37.340Z,67.00
2022-08-18T02:23:11.198Z,66.57
2022-08-18T02:23:52.184Z,66.48
2022-08-18T02:24:25.732Z,66.67
2022-08-18T02:24:58.048Z,67.18
2022-08-18T02:25:30.071Z,67.28
2022-08-18T02:26:10.885Z,67.29
2022-08-18T02:26:43.909Z,67.52
2022-08-18T02:27:17.300Z,67.64
2022-08-18T02:27:49.371Z,67.45
2022-08-18T02:28:21.343Z,67.13
2022-08-18T02:28:53.356Z,66.99
2022-08-18T02:29:25.264Z,66.89
2022-08-18T02:30:00.276Z,67.07
2022-08-18T02:30:35.061Z,67.12
2022-08-18T02:31:14.322Z,67.12
2022-08-18T02:31:46.242Z,67.49
2022-08-18T02:32:18.399Z,67.65
2022-08-18T02:32:50.362Z,67.88
2022-08-18T02:33:22.298Z,67.94
2022-08-18T02:33:54.286Z,67.80
2022-08-18T02:34:27.036Z,67.65
2022-08-18T02:34:59.151Z,67.62
2022-08-18T02:35:31.143Z,67.62
2022-08-18T02:36:03.836Z,68.02
2022-08-18T02:36:35.776Z,68.03
2022-08-18T02:37:10.847Z,68.18
2022-08-18T02:37:48.520Z,68.57
2022-08-18T02:38:20.476Z,68.33
2022-08-18T02:38:59.457Z,68.16
2022-08-18T02:39:35.414Z,68.09
2022-08-18T02:40:08.058Z,68.22
2022-08-18T02:40:40.029Z,68.22
2022-08-18T02:41:13.208Z,68.67
2022-08-18T02:41:45.109Z,68.83
2022-08-18T02:42:17.547Z,68.95
2022-08-18T02:42:50.114Z,69.02
2022-08-18T02:43:22.197Z,69.59
2022-08-18T02:43:54.105Z,69.38
2022-08-18T02:44:26.189Z,69.18
2022-08-18T02:44:58.152Z,69.22
2022-08-18T02:45:31.101Z,69.18
2022-08-18T02:46:03.838Z,68.95
2022-08-18T02:46:36.462Z,68.81
2022-08-18T02:47:08.858Z,68.77
2022-08-18T02:47:42.983Z,69.29
2022-08-18T02:48:16.892Z,69.63
2022-08-18T02:48:50.631Z,69.56
2022-08-18T02:49:22.709Z,69.36
2022-08-18T02:49:54.681Z,69.30
2022-08-18T02:50:26.844Z,69.23
2022-08-18T02:51:09.531Z,69.84
2022-08-18T02:51:44.339Z,69.51
2022-08-18T02:52:17.327Z,70.10
2022-08-18T02:52:49.374Z,70.03
2022-08-18T02:53:25.089Z,70.04
2022-08-18T02:54:00.529Z,69.84
2022-08-18T02:54:32.627Z,69.65
2022-08-18T02:55:05.111Z,69.96
2022-08-18T02:55:38.096Z,69.82
2022-08-18T02:56:18.502Z,69.67
2022-08-18T02:57:12.387Z,69.59
2022-08-18T02:57:46.108Z,69.75
2022-08-18T02:58:20.513Z,69.78
2022-08-18T02:58:55.350Z,69.55
2022-08-18T02:59:28.072Z,70.11
2022-08-18T03:00:04.723Z,70.09
2022-08-18T03:00:36.773Z,70.11
2022-08-18T03:01:08.735Z,70.08
2022-08-18T03:01:45.103Z,69.94
2022-08-18T03:02:17.196Z,69.91
2022-08-18T03:02:51.632Z,69.77
2022-08-18T03:03:23.641Z,69.72
2022-08-18T03:03:57.623Z,69.70
2022-08-18T03:04:30.841Z,69.94
2022-08-18T03:05:02.801Z,69.76
2022-08-18T03:05:34.893Z,70.29
2022-08-18T03:06:07.114Z,70.16
2022-08-18T03:06:40.193Z,70.29
2022-08-18T03:07:14.609Z,70.33
2022-08-18T03:07:46.829Z,70.35
2022-08-18T03:08:18.782Z,70.25
2022-08-18T03:08:52.137Z,70.41
2022-08-18T03:09:24.467Z,70.55
2022-08-18T03:09:56.384Z,70.65
2022-08-18T03:10:33.409Z,70.71
2022-08-18T03:11:06.118Z,70.67
2022-08-18T03:11:38.627Z,70.96
2022-08-18T03:12:10.838Z,70.79
2022-08-18T03:12:43.455Z,70.66
2022-08-18T03:13:15.519Z,70.50
2022-08-18T03:13:47.889Z,70.44
2022-08-18T03:14:20.695Z,70.48
2022-08-18T03:14:52.922Z,70.27
2022-08-18T03:15:26.581Z,70.14
2022-08-18T03:15:58.508Z,70.60
2022-08-18T03:16:33.102Z,70.45
2022-08-18T03:17:08.610Z,70.32
2022-08-18T03:17:40.680Z,70.16
2022-08-18T03:18:13.341Z,70.11
2022-08-18T03:18:46.677Z,70.42
2022-08-18T03:19:18.553Z,70.42
2022-08-18T03:19:50.466Z,70.67
2022-08-18T03:20:30.187Z,70.92
2022-08-18T03:21:11.648Z,70.92
2022-08-18T03:21:46.677Z,71.28
2022-08-18T03:22:28.199Z,71.12
2022-08-18T03:23:09.883Z,71.12
2022-08-18T03:23:42.739Z,71.24
2022-08-18T03:24:19.332Z,71.23
2022-08-18T03:24:54.520Z,71.40
2022-08-18T03:25:26.761Z,71.53
2022-08-18T03:25:59.093Z,71.49
2022-08-18T03:26:33.045Z,71.51
2022-08-18T03:27:07.156Z,71.52
2022-08-18T03:27:39.042Z,71.50
2022-08-18T03:28:10.952Z,71.70
2022-08-18T03:28:46.938Z,71.78
2022-08-18T03:29:20.064Z,72.12
2022-08-18T03:29:52.473Z,73.00
2022-08-18T03:30:24.362Z,72.75
2022-08-18T03:30:56.605Z,72.46
2022-08-18T03:31:31.511Z,72.91
2022-08-18T03:32:06.815Z,72.72
2022-08-18T03:32:38.727Z,72.44
2022-08-18T03:33:17.697Z,72.24
2022-08-18T03:33:51.668Z,71.87
2022-08-18T03:34:23.663Z,71.59
2022-08-18T03:34:55.611Z,71.73
2022-08-18T03:35:27.612Z,71.74
2022-08-18T03:36:08.020Z,71.92
2022-08-18T03:36:40.145Z,71.98
2022-08-18T03:37:12.075Z,72.54
2022-08-18T03:37:44.845Z,72.61
2022-08-18T03:38:16.960Z,72.45
2022-08-18T03:38:50.915Z,72.39
2022-08-18T03:39:27.634Z,72.09
2022-08-18T03:39:59.772Z,72.05
2022-08-18T03:40:31.803Z,71.92
2022-08-18T03:41:05.876Z,71.89
2022-08-18T03:41:44.089Z,71.52
2022-08-18T03:42:31.410Z,71.33
2022-08-18T03:43:06.452Z,71.35
2022-08-18T03:43:58.373Z,71.38
2022-08-18T03:44:33.333Z,71.42
2022-08-18T03:45:13.126Z,71.62
2022-08-18T03:45:49.610Z,71.80
2022-08-18T03:46:23.257Z,71.50
2022-08-18T03:46:55.202Z,71.17
2022-08-18T03:47:28.185Z,71.24
2022-08-18T03:48:01.598Z,71.19
2022-08-18T03:48:33.917Z,71.07
2022-08-18T03:49:05.870Z,71.18
2022-08-18T03:49:38.732Z,71.19
2022-08-18T03:50:13.929Z,71.34
2022-08-18T03:50:47.383Z,71.52
2022-08-18T03:51:22.855Z,71.60
2022-08-18T03:51:55.292Z,71.21
2022-08-18T03:52:27.189Z,71.35
2022-08-18T03:52:59.751Z,71.57
2022-08-18T03:53:32.544Z,71.36
2022-08-18T03:54:05.848Z,71.22
2022-08-18T03:54:39.238Z,71.41
2022-08-18T03:55:11.293Z,71.11
2022-08-18T03:55:43.502Z,70.99
2022-08-18T03:56:20.816Z,70.93
2022-08-18T03:56:54.673Z,70.85
2022-08-18T03:57:26.880Z,70.75
2022-08-18T03:58:03.066Z,70.71
2022-08-18T03:58:36.851Z,71.14
2022-08-18T03:59:17.001Z,71.28
2022-08-18T03:59:48.889Z,71.43
2022-08-18T04:00:21.896Z,71.88
2022-08-18T04:00:54.335Z,71.96
2022-08-18T04:01:30.022Z,71.72
2022-08-18T04:02:04.454Z,71.37
2022-08-18T04:02:36.437Z,71.16
2022-08-18T04:03:09.649Z,71.05
2022-08-18T04:03:47.087Z,71.41
2022-08-18T04:04:25.277Z,71.66
2022-08-18T04:04:57.255Z,71.91
2022-08-18T04:05:29.332Z,72.14
2022-08-18T04:06:01.528Z,72.13
2022-08-18T04:06:41.088Z,72.54
2022-08-18T04:07:14.481Z,72.28
2022-08-18T04:07:46.450Z,72.32
2022-08-18T04:08:18.335Z,72.26
2022-08-18T04:08:55.047Z,71.97
2022-08-18T04:09:30.295Z,72.08
2022-08-18T04:10:02.231Z,72.62
2022-08-18T04:10:35.662Z,72.68
2022-08-18T04:11:08.032Z,72.84
2022-08-18T04:11:43.484Z,72.58
2022-08-18T04:12:17.361Z,72.39
2022-08-18T04:12:50.005Z,72.76
2022-08-18T04:13:23.450Z,72.97
2022-08-18T04:13:59.223Z,73.74
2022-08-18T04:14:34.279Z,73.38
2022-08-18T04:15:06.538Z,72.41
2022-08-18T04:15:38.420Z,72.03
2022-08-18T04:16:10.737Z,71.56
2022-08-18T04:16:43.588Z,71.25
2022-08-18T04:17:17.538Z,70.67
2022-08-18T04:17:56.219Z,70.46
2022-08-18T04:18:35.731Z,70.25
2022-08-18T04:19:09.965Z,70.00
2022-08-18T04:19:42.097Z,69.89
2022-08-18T04:20:14.004Z,69.75
2022-08-18T04:20:58.952Z,69.42
2022-08-18T04:21:35.692Z,69.33
2022-08-18T04:22:07.606Z,69.44
2022-08-18T04:22:40.361Z,69.51
2022-08-18T04:23:12.319Z,69.91
2022-08-18T04:23:44.775Z,69.98
2022-08-18T04:24:17.388Z,69.87
2022-08-18T04:24:50.343Z,70.21
2022-08-18T04:25:22.654Z,70.14
2022-08-18T04:25:59.030Z,70.18
2022-08-18T04:26:40.139Z,70.11
2022-08-18T04:27:12.505Z,69.70
2022-08-18T04:27:44.748Z,69.83
2022-08-18T04:28:16.654Z,70.08
2022-08-18T04:28:48.666Z,70.23
2022-08-18T04:29:21.661Z,70.19
2022-08-18T04:29:56.758Z,70.01
2022-08-18T04:30:29.636Z,70.14
2022-08-18T04:31:09.215Z,70.25
2022-08-18T04:31:42.267Z,70.26
2022-08-18T04:32:15.282Z,70.08
2022-08-18T04:32:47.273Z,69.93
2022-08-18T04:33:19.877Z,69.64
2022-08-18T04:33:52.049Z,69.90
2022-08-18T04:34:24.017Z,69.79
2022-08-18T04:34:56.046Z,69.83
2022-08-18T04:35:31.032Z,69.96
2022-08-18T04:36:19.173Z,70.21
2022-08-18T04:36:54.125Z,70.66
2022-08-18T04:37:26.743Z,70.52
2022-08-18T04:37:58.644Z,70.26
2022-08-18T04:38:30.559Z,70.11
2022-08-18T04:39:05.858Z,70.05
2022-08-18T04:39:38.025Z,69.79
2022-08-18T04:40:11.469Z,69.67
2022-08-18T04:40:45.125Z,69.72
2022-08-18T04:41:17.969Z,69.62
2022-08-18T04:41:51.019Z,69.64
2022-08-18T04:42:22.906Z,69.74
2022-08-18T04:42:55.337Z,69.83
2022-08-18T04:43:27.714Z,69.60
2022-08-18T04:44:02.585Z,69.58
2022-08-18T04:44:37.825Z,69.46
2022-08-18T04:45:10.309Z,69.16
2022-08-18T04:45:44.957Z,68.92
2022-08-18T04:46:16.996Z,68.75
2022-08-18T04:46:53.640Z,68.66
2022-08-18T04:47:26.210Z,69.14
2022-08-18T04:47:58.399Z,69.14
2022-08-18T04:48:35.926Z,69.63
2022-08-18T04:49:09.311Z,69.44
2022-08-18T04:49:41.303Z,69.25
2022-08-18T04:50:13.256Z,69.46
2022-08-18T04:50:45.309Z,69.32
2022-08-18T04:52:32.007Z,68.94
2022-08-18T04:52:39.740Z,68.60
2022-08-18T04:53:45.485Z,68.31
2022-08-18T04:54:17.389Z,68.54
2022-08-18T04:54:49.321Z,68.25
2022-08-18T04:55:21.198Z,68.15
2022-08-18T04:55:55.829Z,68.34
2022-08-18T04:56:30.715Z,68.86
2022-08-18T04:57:07.932Z,69.09
2022-08-18T04:57:39.931Z,69.17
2022-08-18T04:58:11.835Z,68.89
2022-08-18T04:58:44.182Z,69.14
2022-08-18T04:59:16.445Z,69.04
2022-08-18T04:59:52.260Z,68.92
2022-08-18T05:00:24.596Z,68.72
2022-08-18T05:01:01.570Z,67.82
2022-08-18T05:01:48.351Z,67.25
2022-08-18T05:02:22.050Z,67.08
2022-08-18T05:02:54.593Z,67.28
2022-08-18T05:03:27.069Z,67.36
2022-08-18T05:03:59.388Z,67.34
2022-08-18T05:04:31.948Z,67.47
2022-08-18T05:05:04.922Z,65.99
2022-08-18T05:05:37.222Z,66.08
2022-08-18T05:06:09.903Z,66.41
2022-08-18T05:06:43.645Z,66.41
2022-08-18T05:07:20.451Z,65.35
2022-08-18T05:07:52.602Z,65.46
2022-08-18T05:08:25.486Z,65.88
2022-08-18T05:09:00.425Z,65.84
2022-08-18T05:09:32.662Z,65.66
2022-08-18T05:10:17.641Z,66.17
2022-08-18T05:11:03.812Z,65.03
2022-08-18T05:11:37.360Z,64.33
2022-08-18T05:12:14.279Z,64.16
2022-08-18T05:12:48.219Z,64.08
2022-08-18T05:13:20.600Z,64.03
2022-08-18T05:13:52.872Z,64.24
2022-08-18T05:14:25.109Z,64.41
2022-08-18T05:14:57.638Z,64.30
2022-08-18T05:15:42.151Z,64.00
2022-08-18T05:16:27.463Z,63.83
2022-08-18T05:17:00.440Z,64.01
2022-08-18T05:17:32.351Z,63.94
2022-08-18T05:18:05.343Z,63.67
2022-08-18T05:18:40.411Z,63.48
2022-08-18T05:19:15.460Z,63.36
2022-08-18T05:19:51.740Z,63.71
2022-08-18T05:20:24.056Z,63.47
2022-08-18T05:21:00.327Z,63.56
2022-08-18T05:21:37.294Z,63.68
2022-08-18T05:22:11.550Z,63.62
2022-08-18T05:22:45.994Z,63.58
2022-08-18T05:23:18.761Z,63.14
2022-08-18T05:23:51.198Z,62.91
2022-08-18T05:24:25.313Z,62.83
2022-08-18T05:24:58.229Z,62.63
2022-08-18T05:25:30.505Z,62.47
2022-08-18T05:26:03.802Z,62.17
2022-08-18T05:26:36.406Z,61.89
2022-08-18T05:27:08.359Z,61.91
2022-08-18T05:27:43.616Z,62.11
2022-08-18T05:28:16.451Z,62.11
2022-08-18T05:28:49.290Z,62.28
2022-08-18T05:29:29.167Z,62.08
2022-08-18T05:30:06.061Z,62.17
2022-08-18T05:30:38.288Z,62.76
2022-08-18T05:31:19.371Z,62.38
2022-08-18T05:31:53.583Z,61.83
2022-08-18T05:32:36.985Z,62.09
2022-08-18T05:33:17.520Z,61.92
2022-08-18T05:33:49.942Z,61.51
2022-08-18T05:34:22.073Z,61.35
2022-08-18T05:34:54.085Z,61.29
2022-08-18T05:35:33.654Z,61.31
2022-08-18T05:36:23.463Z,61.32
2022-08-18T05:37:02.914Z,61.58
2022-08-18T05:37:48.440Z,61.34
2022-08-18T05:38:38.782Z,61.26
2022-08-18T05:39:21.035Z,61.17
2022-08-18T05:39:58.833Z,60.88
2022-08-18T05:40:31.928Z,61.21
2022-08-18T05:41:14.498Z,61.05
2022-08-18T05:42:05.980Z,61.02
2022-08-18T05:42:39.879Z,60.98
2022-08-18T05:43:15.153Z,60.58
2022-08-18T05:43:51.932Z,60.34
2022-08-18T05:44:30.643Z,60.35
2022-08-18T05:45:08.522Z,60.72
2022-08-18T05:45:41.992Z,60.50
2022-08-18T05:46:14.013Z,60.55
2022-08-18T05:46:54.778Z,60.93
2022-08-18T05:47:29.812Z,60.61
2022-08-18T05:48:01.965Z,61.06
2022-08-18T05:48:39.791Z,60.94
2022-08-18T05:49:15.791Z,61.05
2022-08-18T05:49:49.205Z,60.60
2022-08-18T05:50:21.367Z,60.24
2022-08-18T05:50:55.416Z,59.93
2022-08-18T05:51:34.616Z,59.55
2022-08-18T05:52:14.015Z,59.53
2022-08-18T05:53:05.566Z,59.67
2022-08-18T05:54:04.638Z,59.80
2022-08-18T05:55:07.299Z,59.64
2022-08-18T05:56:24.152Z,59.50
2022-08-18T05:57:02.400Z,59.16
2022-08-18T05:57:45.031Z,59.42
2022-08-18T05:58:33.391Z,59.14
2022-08-18T05:59:06.169Z,59.11
2022-08-18T05:59:41.258Z,58.98
2022-08-18T06:00:13.857Z,59.05
2022-08-18T06:01:00.219Z,58.74
2022-08-18T06:01:44.280Z,59.20
2022-08-18T06:02:47.356Z,58.86
2022-08-18T06:03:26.378Z,58.36
2022-08-18T06:04:09.134Z,58.23
2022-08-18T06:04:52.198Z,57.55
2022-08-18T06:05:32.809Z,57.30
2022-08-18T06:06:17.620Z,57.01
2022-08-18T06:06:51.563Z,57.29
2022-08-18T06:07:34.318Z,57.20
2022-08-18T06:08:10.353Z,57.28
2022-08-18T06:08:46.933Z,57.29
2022-08-18T06:09:28.947Z,56.96
2022-08-18T06:10:00.940Z,56.58
2022-08-18T06:10:33.084Z,56.49
2022-08-18T06:11:05.572Z,56.34
2022-08-18T06:11:50.407Z,56.09
2022-08-18T06:12:28.939Z,55.46
2022-08-18T06:13:02.407Z,55.22
2022-08-18T06:13:40.856Z,55.43
2022-08-18T06:14:13.576Z,55.54
2022-08-18T06:14:46.233Z,55.54
2022-08-18T06:15:33.254Z,55.42
2022-08-18T06:16:20.125Z,55.40
2022-08-18T06:16:55.233Z,54.69
2022-08-18T06:17:39.369Z,54.47
2022-08-18T06:18:43.837Z,54.43
2022-08-18T06:19:39.161Z,54.50
2022-08-18T06:20:36.486Z,54.13
2022-08-18T06:21:38.777Z,53.98
2022-08-18T06:22:22.277Z,53.98
2022-08-18T06:23:33.377Z,53.34
2022-08-18T06:24:18.871Z,52.85
2022-08-18T06:25:01.493Z,52.30
2022-08-18T06:25:47.291Z,52.47
2022-08-18T06:26:19.837Z,52.76
2022-08-18T06:27:12.052Z,52.97
2022-08-18T06:28:14.202Z,53.16
2022-08-18T06:29:06.418Z,52.80
2022-08-18T06:29:47.916Z,53.59
2022-08-18T06:30:25.308Z,53.31
2022-08-18T06:31:13.400Z,52.81
2022-08-18T06:32:05.729Z,52.40
2022-08-18T06:33:10.675Z,52.20
2022-08-18T06:34:09.471Z,51.34
2022-08-18T06:35:18.310Z,51.30
2022-08-18T06:36:12.823Z,50.99
2022-08-18T06:36:58.102Z,51.04
2022-08-18T06:38:10.154Z,50.84
2022-08-18T06:39:03.672Z,50.24
2022-08-18T06:39:50.576Z,49.95
2022-08-18T06:40:22.797Z,50.62
2022-08-18T06:41:42.893Z,51.16
2022-08-18T06:42:11.329Z,51.32
2022-08-18T06:42:43.718Z,50.91
2022-08-18T06:43:17.285Z,50.89
2022-08-18T06:44:04.322Z,50.78
2022-08-18T06:44:42.605Z,50.60
2022-08-18T06:45:18.388Z,50.33
2022-08-18T06:45:52.400Z,50.21
2022-08-18T06:46:41.880Z,49.97
2022-08-18T06:47:44.645Z,49.64
2022-08-18T06:48:37.789Z,49.60
2022-08-18T06:49:26.684Z,49.37
2022-08-18T06:50:06.460Z,49.30
2022-08-18T06:50:56.017Z,49.19
2022-08-18T06:51:28.547Z,49.48
2022-08-18T06:52:22.453Z,50.03
2022-08-18T06:52:59.057Z,50.20
2022-08-18T06:54:01.742Z,49.75
2022-08-18T06:54:42.634Z,49.02
2022-08-18T06:55:32.564Z,49.08
2022-08-18T06:56:26.282Z,48.62
2022-08-18T06:56:58.977Z,48.77
2022-08-18T06:57:52.909Z,48.68
2022-08-18T06:58:30.690Z,48.17
2022-08-18T06:59:18.566Z,48.17
2022-08-18T07:00:17.118Z,47.76
2022-08-18T07:00:56.347Z,47.95
2022-08-18T07:01:29.414Z,48.16
2022-08-18T07:02:20.932Z,48.12
2022-08-18T07:03:21.592Z,48.00
2022-08-18T07:03:56.737Z,47.39
2022-08-18T07:04:57.780Z,47.25
2022-08-18T07:05:32.287Z,47.37
2022-08-18T07:06:21.493Z,47.68
2022-08-18T07:06:53.553Z,47.33
2022-08-18T07:07:40.029Z,47.41
2022-08-18T07:08:27.692Z,47.32
2022-08-18T07:09:24.420Z,47.47
2022-08-18T07:09:56.572Z,47.37
2022-08-18T07:10:39.246Z,47.95
2022-08-18T07:11:23.073Z,47.91
2022-08-18T07:12:02.020Z,47.56
2022-08-18T07:12:34.920Z,47.08
2022-08-18T07:13:07.873Z,46.86
2022-08-18T07:13:42.275Z,46.76
2022-08-18T07:14:16.923Z,46.88
2022-08-18T07:14:56.025Z,46.67
2022-08-18T07:15:28.092Z,46.53
2022-08-18T07:16:26.310Z,46.44
2022-08-18T07:17:13.902Z,46.94
2022-08-18T07:17:49.019Z,46.76
2022-08-18T07:18:28.446Z,46.63
2022-08-18T07:19:16.739Z,46.64
2022-08-18T07:20:16.560Z,46.27
2022-08-18T07:20:58.345Z,45.84
2022-08-18T07:21:32.516Z,46.24
2022-08-18T07:22:10.084Z,46.40
2022-08-18T07:23:07.976Z,46.09
2022-08-18T07:23:40.812Z,46.23
2022-08-18T07:24:46.567Z,46.02
2022-08-18T07:25:27.659Z,45.53
2022-08-18T07:26:15.747Z,46.00
2022-08-18T07:27:00.931Z,45.67
2022-08-18T07:27:52.894Z,46.14
2022-08-18T07:28:53.799Z,45.86
2022-08-18T07:29:26.641Z,46.09
2022-08-18T07:30:05.826Z,45.79
2022-08-18T07:30:41.869Z,45.39
2022-08-18T07:31:35.154Z,45.41
2022-08-18T07:32:21.482Z,45.29
2022-08-18T07:33:21.246Z,45.75
2022-08-18T07:34:15.217Z,45.57
2022-08-18T07:34:53.802Z,45.90
2022-08-18T07:35:39.211Z,45.58
2022-08-18T07:36:13.458Z,45.25
2022-08-18T07:36:53.153Z,45.01
2022-08-18T07:37:31.767Z,44.96
2022-08-18T07:38:40.601Z,44.92
2022-08-18T07:39:32.991Z,44.77
2022-08-18T07:40:31.576Z,44.60
2022-08-18T07:41:13.853Z,44.79
2022-08-18T07:41:57.499Z,44.98
2022-08-18T07:43:00.763Z,44.91
2022-08-18T07:43:39.237Z,44.68
2022-08-18T07:44:19.890Z,44.76
2022-08-18T07:45:09.524Z,44.54
2022-08-18T07:45:44.580Z,43.88
2022-08-18T07:46:26.239Z,44.40
2022-08-18T07:47:03.758Z,44.22
2022-08-18T07:47:42.131Z,43.91
2022-08-18T07:48:37.770Z,43.94
2022-08-18T07:49:21.661Z,44.03
2022-08-18T07:50:16.889Z,43.84
2022-08-18T07:51:22.207Z,44.54
2022-08-18T07:51:59.863Z,43.65
2022-08-18T07:52:51.563Z,43.27
2022-08-18T07:54:01.764Z,43.14
2022-08-18T07:55:02.109Z,43.26
2022-08-18T07:55:35.994Z,43.22
2022-08-18T07:56:21.914Z,43.18
2022-08-18T07:57:09.007Z,43.46
2022-08-18T07:58:12.265Z,43.44
2022-08-18T07:59:07.072Z,42.55
2022-08-18T08:00:18.725Z,42.01
2022-08-18T08:01:08.301Z,42.51
2022-08-18T08:01:52.462Z,43.06
2022-08-18T08:02:27.012Z,42.92
2022-08-18T08:03:14.424Z,42.82
2022-08-18T08:04:04.805Z,42.72
2022-08-18T08:05:05.093Z,42.22
2022-08-18T08:05:48.601Z,42.24
2022-08-18T08:07:06.101Z,42.10